sensor_id;sensor_type;location;lat;lon;timestamp;temperature;humidity
19192;DHT22;9728;48.194;16.346;2023-03-03T00:01:26;13.20;54.50
19192;DHT22;9728;48.194;16.346;2023-03-03T00:06:30;13.10;54.30
19192;DHT22;9728;48.194;16.346;2023-03-03T00:11:35;13.00;54.30
19192;DHT22;9728;48.194;16.346;2023-03-03T00:16:39;13.00;54.50
19192;DHT22;9728;48.194;16.346;2023-03-03T00:21:45;13.00;54.40
19192;DHT22;9728;48.194;16.346;2023-03-03T00:26:51;13.00;54.60
19192;DHT22;9728;48.194;16.346;2023-03-03T00:37:37;12.90;54.80
19192;DHT22;9728;48.194;16.346;2023-03-03T00:42:48;12.80;54.50
19192;DHT22;9728;48.194;16.346;2023-03-03T00:47:51;12.80;54.80
19192;DHT22;9728;48.194;16.346;2023-03-03T00:53:01;12.70;54.70
19192;DHT22;9728;48.194;16.346;2023-03-03T00:58:06;12.70;55.00
19192;DHT22;9728;48.194;16.346;2023-03-03T01:03:17;12.70;54.90
19192;DHT22;9728;48.194;16.346;2023-03-03T01:08:21;12.60;54.90
19192;DHT22;9728;48.194;16.346;2023-03-03T01:13:28;12.60;55.60
19192;DHT22;9728;48.194;16.346;2023-03-03T01:18:33;12.60;55.10
19192;DHT22;9728;48.194;16.346;2023-03-03T01:23:37;12.50;55.10
19192;DHT22;9728;48.194;16.346;2023-03-03T01:28:42;12.40;55.00
19192;DHT22;9728;48.194;16.346;2023-03-03T01:33:45;12.40;55.10
19192;DHT22;9728;48.194;16.346;2023-03-03T01:38:49;12.40;55.20
19192;DHT22;9728;48.194;16.346;2023-03-03T01:43:54;12.40;55.20
19192;DHT22;9728;48.194;16.346;2023-03-03T01:49:01;12.30;55.30
19192;DHT22;9728;48.194;16.346;2023-03-03T01:54:09;12.30;55.50
19192;DHT22;9728;48.194;16.346;2023-03-03T01:59:18;12.30;55.50
19192;DHT22;9728;48.194;16.346;2023-03-03T02:04:24;12.20;55.50
19192;DHT22;9728;48.194;16.346;2023-03-03T02:09:33;12.20;55.40
19192;DHT22;9728;48.194;16.346;2023-03-03T02:14:41;12.20;55.70
19192;DHT22;9728;48.194;16.346;2023-03-03T02:19:51;12.10;55.60
19192;DHT22;9728;48.194;16.346;2023-03-03T02:25:00;12.10;56.50
19192;DHT22;9728;48.194;16.346;2023-03-03T02:30:12;12.10;55.80
19192;DHT22;9728;48.194;16.346;2023-03-03T02:35:36;12.10;56.00
19192;DHT22;9728;48.194;16.346;2023-03-03T02:40:44;12.00;56.10
19192;DHT22;9728;48.194;16.346;2023-03-03T02:45:53;12.00;55.90
19192;DHT22;9728;48.194;16.346;2023-03-03T02:50:58;12.00;55.80
19192;DHT22;9728;48.194;16.346;2023-03-03T02:56:03;12.00;55.80
19192;DHT22;9728;48.194;16.346;2023-03-03T03:01:09;12.00;55.90
19192;DHT22;9728;48.194;16.346;2023-03-03T03:06:14;12.00;56.00
19192;DHT22;9728;48.194;16.346;2023-03-03T03:11:17;11.90;56.10
19192;DHT22;9728;48.194;16.346;2023-03-03T03:16:23;11.90;56.10
19192;DHT22;9728;48.194;16.346;2023-03-03T03:21:27;11.90;56.30
19192;DHT22;9728;48.194;16.346;2023-03-03T03:26:32;11.90;56.20
19192;DHT22;9728;48.194;16.346;2023-03-03T03:31:38;11.90;56.20
19192;DHT22;9728;48.194;16.346;2023-03-03T03:36:42;11.90;56.30
19192;DHT22;9728;48.194;16.346;2023-03-03T03:41:50;11.90;56.20
19192;DHT22;9728;48.194;16.346;2023-03-03T03:46:55;11.90;56.30
19192;DHT22;9728;48.194;16.346;2023-03-03T03:51:59;11.90;56.40
19192;DHT22;9728;48.194;16.346;2023-03-03T03:57:06;11.90;56.40
19192;DHT22;9728;48.194;16.346;2023-03-03T04:02:11;11.90;56.30
19192;DHT22;9728;48.194;16.346;2023-03-03T04:07:16;11.90;56.20
19192;DHT22;9728;48.194;16.346;2023-03-03T04:12:19;11.80;56.20
19192;DHT22;9728;48.194;16.346;2023-03-03T04:17:24;11.80;56.20
19192;DHT22;9728;48.194;16.346;2023-03-03T04:22:28;11.80;56.30
19192;DHT22;9728;48.194;16.346;2023-03-03T04:27:35;11.80;56.30
19192;DHT22;9728;48.194;16.346;2023-03-03T04:32:41;11.80;56.40
19192;DHT22;9728;48.194;16.346;2023-03-03T04:37:47;11.70;56.50
19192;DHT22;9728;48.194;16.346;2023-03-03T04:42:51;11.70;56.40
19192;DHT22;9728;48.194;16.346;2023-03-03T04:47:56;11.70;56.50
19192;DHT22;9728;48.194;16.346;2023-03-03T04:53:00;11.70;56.60
19192;DHT22;9728;48.194;16.346;2023-03-03T04:58:04;11.60;56.50
19192;DHT22;9728;48.194;16.346;2023-03-03T05:03:10;11.60;56.60
19192;DHT22;9728;48.194;16.346;2023-03-03T05:08:16;11.60;56.70
19192;DHT22;9728;48.194;16.346;2023-03-03T05:13:20;11.60;56.60
19192;DHT22;9728;48.194;16.346;2023-03-03T05:18:32;11.50;56.70
19192;DHT22;9728;48.194;16.346;2023-03-03T05:23:36;11.50;56.90
19192;DHT22;9728;48.194;16.346;2023-03-03T05:28:40;11.50;56.70
19192;DHT22;9728;48.194;16.346;2023-03-03T05:33:45;11.50;56.70
19192;DHT22;9728;48.194;16.346;2023-03-03T05:38:48;11.40;56.70
19192;DHT22;9728;48.194;16.346;2023-03-03T05:43:52;11.40;56.70
19192;DHT22;9728;48.194;16.346;2023-03-03T05:48:57;11.40;56.80
19192;DHT22;9728;48.194;16.346;2023-03-03T05:54:00;11.30;56.90
19192;DHT22;9728;48.194;16.346;2023-03-03T05:59:04;11.30;57.10
19192;DHT22;9728;48.194;16.346;2023-03-03T06:04:09;11.30;57.10
19192;DHT22;9728;48.194;16.346;2023-03-03T06:09:12;11.40;57.10
19192;DHT22;9728;48.194;16.346;2023-03-03T06:14:16;11.40;57.00
19192;DHT22;9728;48.194;16.346;2023-03-03T06:19:21;11.40;57.10
19192;DHT22;9728;48.194;16.346;2023-03-03T06:24:25;11.50;57.30
19192;DHT22;9728;48.194;16.346;2023-03-03T06:29:31;11.50;57.20
19192;DHT22;9728;48.194;16.346;2023-03-03T06:34:36;11.50;57.20
19192;DHT22;9728;48.194;16.346;2023-03-03T06:39:39;11.50;57.30
19192;DHT22;9728;48.194;16.346;2023-03-03T06:44:43;11.60;57.30
19192;DHT22;9728;48.194;16.346;2023-03-03T06:49:48;11.60;57.30
19192;DHT22;9728;48.194;16.346;2023-03-03T06:54:53;11.70;57.50
19192;DHT22;9728;48.194;16.346;2023-03-03T07:00:19;11.70;57.50
19192;DHT22;9728;48.194;16.346;2023-03-03T07:05:26;11.80;57.80
19192;DHT22;9728;48.194;16.346;2023-03-03T07:10:30;11.80;57.70
19192;DHT22;9728;48.194;16.346;2023-03-03T07:15:34;11.90;57.50
19192;DHT22;9728;48.194;16.346;2023-03-03T07:20:40;11.90;57.50
19192;DHT22;9728;48.194;16.346;2023-03-03T07:25:43;12.00;57.60
19192;DHT22;9728;48.194;16.346;2023-03-03T07:30:47;12.00;57.50
19192;DHT22;9728;48.194;16.346;2023-03-03T07:35:54;12.10;57.50
19192;DHT22;9728;48.194;16.346;2023-03-03T07:41:00;12.20;57.60
19192;DHT22;9728;48.194;16.346;2023-03-03T07:46:25;12.30;57.60
19192;DHT22;9728;48.194;16.346;2023-03-03T07:51:38;12.30;59.70
19192;DHT22;9728;48.194;16.346;2023-03-03T07:56:43;12.40;58.10
19192;DHT22;9728;48.194;16.346;2023-03-03T08:01:51;12.50;57.80
19192;DHT22;9728;48.194;16.346;2023-03-03T08:06:58;12.60;57.80
19192;DHT22;9728;48.194;16.346;2023-03-03T08:17:38;12.80;57.70
19192;DHT22;9728;48.194;16.346;2023-03-03T08:22:43;12.80;57.50
19192;DHT22;9728;48.194;16.346;2023-03-03T08:27:46;12.90;57.50
19192;DHT22;9728;48.194;16.346;2023-03-03T08:32:50;13.00;57.50
19192;DHT22;9728;48.194;16.346;2023-03-03T08:37:55;13.10;57.40
19192;DHT22;9728;48.194;16.346;2023-03-03T08:42:59;13.30;57.50
19192;DHT22;9728;48.194;16.346;2023-03-03T08:48:03;13.30;57.50
19192;DHT22;9728;48.194;16.346;2023-03-03T08:53:09;13.40;57.40
19192;DHT22;9728;48.194;16.346;2023-03-03T08:58:13;13.50;57.40
19192;DHT22;9728;48.194;16.346;2023-03-03T09:03:17;13.60;57.40
19192;DHT22;9728;48.194;16.346;2023-03-03T09:08:22;13.80;57.40
19192;DHT22;9728;48.194;16.346;2023-03-03T09:13:26;13.90;57.40
19192;DHT22;9728;48.194;16.346;2023-03-03T09:18:34;14.10;57.40
19192;DHT22;9728;48.194;16.346;2023-03-03T09:23:40;14.30;57.30
19192;DHT22;9728;48.194;16.346;2023-03-03T09:28:44;14.50;57.20
19192;DHT22;9728;48.194;16.346;2023-03-03T09:33:48;14.70;57.40
19192;DHT22;9728;48.194;16.346;2023-03-03T09:38:55;14.90;57.20
19192;DHT22;9728;48.194;16.346;2023-03-03T09:44:19;15.20;57.00
19192;DHT22;9728;48.194;16.346;2023-03-03T09:49:30;15.40;56.70
19192;DHT22;9728;48.194;16.346;2023-03-03T09:54:48;15.60;57.30
19192;DHT22;9728;48.194;16.346;2023-03-03T10:00:06;15.90;56.40
19192;DHT22;9728;48.194;16.346;2023-03-03T10:05:26;16.20;56.60
19192;DHT22;9728;48.194;16.346;2023-03-03T10:10:45;16.40;56.00
19192;DHT22;9728;48.194;16.346;2023-03-03T10:15:59;16.60;55.70
19192;DHT22;9728;48.194;16.346;2023-03-03T10:21:10;16.90;55.90
19192;DHT22;9728;48.194;16.346;2023-03-03T10:26:23;17.10;55.50
19192;DHT22;9728;48.194;16.346;2023-03-03T10:31:54;17.40;55.20
19192;DHT22;9728;48.194;16.346;2023-03-03T10:37:07;17.60;55.00
19192;DHT22;9728;48.194;16.346;2023-03-03T10:42:25;17.90;55.00
19192;DHT22;9728;48.194;16.346;2023-03-03T10:47:46;18.10;54.60
19192;DHT22;9728;48.194;16.346;2023-03-03T10:52:57;18.40;54.20
19192;DHT22;9728;48.194;16.346;2023-03-03T10:58:20;18.70;54.40
19192;DHT22;9728;48.194;16.346;2023-03-03T11:09:14;19.10;53.10
19192;DHT22;9728;48.194;16.346;2023-03-03T11:14:27;19.40;53.20
19192;DHT22;9728;48.194;16.346;2023-03-03T11:19:55;19.70;52.90
19192;DHT22;9728;48.194;16.346;2023-03-03T11:25:15;19.90;52.10
19192;DHT22;9728;48.194;16.346;2023-03-03T11:30:35;20.20;52.30
19192;DHT22;9728;48.194;16.346;2023-03-03T11:35:46;20.40;51.80
19192;DHT22;9728;48.194;16.346;2023-03-03T11:40:54;20.60;52.00
19192;DHT22;9728;48.194;16.346;2023-03-03T11:46:04;20.80;52.50
19192;DHT22;9728;48.194;16.346;2023-03-03T11:51:13;21.00;51.10
19192;DHT22;9728;48.194;16.346;2023-03-03T11:56:22;21.10;51.20
19192;DHT22;9728;48.194;16.346;2023-03-03T12:01:32;21.20;50.80
19192;DHT22;9728;48.194;16.346;2023-03-03T12:06:51;21.30;50.40
19192;DHT22;9728;48.194;16.346;2023-03-03T12:12:00;21.30;49.80
19192;DHT22;9728;48.194;16.346;2023-03-03T12:17:13;21.40;50.30
19192;DHT22;9728;48.194;16.346;2023-03-03T12:22:30;21.40;49.80
19192;DHT22;9728;48.194;16.346;2023-03-03T12:27:39;21.40;49.60
19192;DHT22;9728;48.194;16.346;2023-03-03T12:33:00;21.50;49.70
19192;DHT22;9728;48.194;16.346;2023-03-03T12:38:12;21.40;49.10
19192;DHT22;9728;48.194;16.346;2023-03-03T12:43:33;21.40;49.10
19192;DHT22;9728;48.194;16.346;2023-03-03T12:48:42;21.40;48.60
19192;DHT22;9728;48.194;16.346;2023-03-03T12:54:01;21.30;48.90
19192;DHT22;9728;48.194;16.346;2023-03-03T12:59:12;21.20;48.50
19192;DHT22;9728;48.194;16.346;2023-03-03T13:04:31;21.00;48.80
19192;DHT22;9728;48.194;16.346;2023-03-03T13:09:46;20.80;48.20
19192;DHT22;9728;48.194;16.346;2023-03-03T13:14:56;20.70;52.50
19192;DHT22;9728;48.194;16.346;2023-03-03T13:20:11;20.70;49.80
19192;DHT22;9728;48.194;16.346;2023-03-03T13:25:34;20.60;49.50
19192;DHT22;9728;48.194;16.346;2023-03-03T13:30:47;20.50;49.00
19192;DHT22;9728;48.194;16.346;2023-03-03T13:35:54;20.40;49.20
19192;DHT22;9728;48.194;16.346;2023-03-03T13:41:08;20.30;49.20
19192;DHT22;9728;48.194;16.346;2023-03-03T13:46:17;20.20;49.00
19192;DHT22;9728;48.194;16.346;2023-03-03T13:51:31;20.10;49.40
19192;DHT22;9728;48.194;16.346;2023-03-03T13:56:54;20.00;49.10
19192;DHT22;9728;48.194;16.346;2023-03-03T14:02:15;19.80;49.10
19192;DHT22;9728;48.194;16.346;2023-03-03T14:07:27;19.70;49.20
19192;DHT22;9728;48.194;16.346;2023-03-03T14:12:41;19.60;49.30
19192;DHT22;9728;48.194;16.346;2023-03-03T14:17:58;19.60;49.40
19192;DHT22;9728;48.194;16.346;2023-03-03T14:23:11;19.50;49.30
19192;DHT22;9728;48.194;16.346;2023-03-03T14:28:16;19.40;49.50
19192;DHT22;9728;48.194;16.346;2023-03-03T14:33:26;19.40;49.60
19192;DHT22;9728;48.194;16.346;2023-03-03T14:38:45;19.30;49.40
19192;DHT22;9728;48.194;16.346;2023-03-03T14:43:56;19.20;49.20
19192;DHT22;9728;48.194;16.346;2023-03-03T14:49:02;19.10;49.30
19192;DHT22;9728;48.194;16.346;2023-03-03T14:54:15;19.00;49.70
19192;DHT22;9728;48.194;16.346;2023-03-03T14:59:23;19.00;49.50
19192;DHT22;9728;48.194;16.346;2023-03-03T15:04:28;19.00;49.70
19192;DHT22;9728;48.194;16.346;2023-03-03T15:09:36;18.90;49.80
19192;DHT22;9728;48.194;16.346;2023-03-03T15:14:45;18.80;49.40
19192;DHT22;9728;48.194;16.346;2023-03-03T15:19:58;18.80;49.70
19192;DHT22;9728;48.194;16.346;2023-03-03T15:25:17;18.80;49.30
19192;DHT22;9728;48.194;16.346;2023-03-03T15:30:29;18.80;49.10
19192;DHT22;9728;48.194;16.346;2023-03-03T15:35:41;18.70;49.10
19192;DHT22;9728;48.194;16.346;2023-03-03T15:40:49;18.70;48.90
19192;DHT22;9728;48.194;16.346;2023-03-03T15:46:09;18.70;49.00
19192;DHT22;9728;48.194;16.346;2023-03-03T15:51:25;18.60;48.50
19192;DHT22;9728;48.194;16.346;2023-03-03T15:56:39;18.60;48.50
19192;DHT22;9728;48.194;16.346;2023-03-03T16:01:51;18.60;48.50
19192;DHT22;9728;48.194;16.346;2023-03-03T16:07:04;18.60;48.20
19192;DHT22;9728;48.194;16.346;2023-03-03T16:12:15;18.60;48.20
19192;DHT22;9728;48.194;16.346;2023-03-03T16:17:27;18.60;48.20
19192;DHT22;9728;48.194;16.346;2023-03-03T16:22:55;18.50;48.10
19192;DHT22;9728;48.194;16.346;2023-03-03T16:28:08;18.50;47.80
19192;DHT22;9728;48.194;16.346;2023-03-03T16:33:20;18.50;48.00
19192;DHT22;9728;48.194;16.346;2023-03-03T16:38:31;18.50;47.90
19192;DHT22;9728;48.194;16.346;2023-03-03T16:43:45;18.40;48.10
19192;DHT22;9728;48.194;16.346;2023-03-03T16:48:54;18.40;47.80
19192;DHT22;9728;48.194;16.346;2023-03-03T16:54:07;18.40;48.10
19192;DHT22;9728;48.194;16.346;2023-03-03T17:04:45;18.30;47.80
19192;DHT22;9728;48.194;16.346;2023-03-03T17:09:59;18.30;48.20
19192;DHT22;9728;48.194;16.346;2023-03-03T17:15:17;18.30;47.90
19192;DHT22;9728;48.194;16.346;2023-03-03T17:20:31;18.30;48.10
19192;DHT22;9728;48.194;16.346;2023-03-03T17:25:44;18.20;47.90
19192;DHT22;9728;48.194;16.346;2023-03-03T17:30:56;18.20;47.80
19192;DHT22;9728;48.194;16.346;2023-03-03T17:36:11;18.10;47.80
19192;DHT22;9728;48.194;16.346;2023-03-03T17:41:25;18.00;47.80
19192;DHT22;9728;48.194;16.346;2023-03-03T17:46:38;18.00;47.80
19192;DHT22;9728;48.194;16.346;2023-03-03T17:52:07;17.90;47.90
19192;DHT22;9728;48.194;16.346;2023-03-03T17:57:29;17.80;47.60
19192;DHT22;9728;48.194;16.346;2023-03-03T18:08:33;17.70;47.60
19192;DHT22;9728;48.194;16.346;2023-03-03T18:13:55;17.70;47.70
19192;DHT22;9728;48.194;16.346;2023-03-03T18:19:17;17.70;47.70
19192;DHT22;9728;48.194;16.346;2023-03-03T18:24:29;17.60;47.60
19192;DHT22;9728;48.194;16.346;2023-03-03T18:29:36;17.50;47.90
19192;DHT22;9728;48.194;16.346;2023-03-03T18:34:43;17.40;48.00
19192;DHT22;9728;48.194;16.346;2023-03-03T18:40:14;17.40;47.90
19192;DHT22;9728;48.194;16.346;2023-03-03T18:45:48;17.30;48.30
19192;DHT22;9728;48.194;16.346;2023-03-03T18:50:54;17.30;48.00
19192;DHT22;9728;48.194;16.346;2023-03-03T18:56:01;17.20;48.30
19192;DHT22;9728;48.194;16.346;2023-03-03T19:12:15;16.90;48.40
19192;DHT22;9728;48.194;16.346;2023-03-03T19:17:40;16.90;48.70
19192;DHT22;9728;48.194;16.346;2023-03-03T19:22:49;16.80;48.80
19192;DHT22;9728;48.194;16.346;2023-03-03T19:28:08;16.70;48.90
19192;DHT22;9728;48.194;16.346;2023-03-03T19:33:39;16.70;49.00
19192;DHT22;9728;48.194;16.346;2023-03-03T19:38:57;16.60;49.10
19192;DHT22;9728;48.194;16.346;2023-03-03T19:44:13;16.60;49.20
19192;DHT22;9728;48.194;16.346;2023-03-03T19:49:33;16.50;50.00
19192;DHT22;9728;48.194;16.346;2023-03-03T19:54:55;16.50;49.40
19192;DHT22;9728;48.194;16.346;2023-03-03T20:00:13;16.40;50.30
19192;DHT22;9728;48.194;16.346;2023-03-03T20:05:27;16.30;49.60
19192;DHT22;9728;48.194;16.346;2023-03-03T20:10:46;16.30;49.70
19192;DHT22;9728;48.194;16.346;2023-03-03T20:16:07;16.30;49.80
19192;DHT22;9728;48.194;16.346;2023-03-03T20:21:20;16.20;49.80
19192;DHT22;9728;48.194;16.346;2023-03-03T20:26:31;16.20;49.90
19192;DHT22;9728;48.194;16.346;2023-03-03T20:31:46;16.10;50.00
19192;DHT22;9728;48.194;16.346;2023-03-03T20:36:59;16.00;50.00
19192;DHT22;9728;48.194;16.346;2023-03-03T20:42:28;16.00;50.70
19192;DHT22;9728;48.194;16.346;2023-03-03T20:47:46;15.90;50.00
19192;DHT22;9728;48.194;16.346;2023-03-03T20:53:00;15.80;50.10
19192;DHT22;9728;48.194;16.346;2023-03-03T20:58:15;15.70;55.50
19192;DHT22;9728;48.194;16.346;2023-03-03T21:03:30;15.70;51.90
19192;DHT22;9728;48.194;16.346;2023-03-03T21:08:41;15.70;51.30
19192;DHT22;9728;48.194;16.346;2023-03-03T21:13:47;15.70;51.10
19192;DHT22;9728;48.194;16.346;2023-03-03T21:18:59;15.60;50.90
19192;DHT22;9728;48.194;16.346;2023-03-03T21:24:05;15.60;50.90
19192;DHT22;9728;48.194;16.346;2023-03-03T21:29:16;15.50;50.90
19192;DHT22;9728;48.194;16.346;2023-03-03T21:34:25;15.40;51.00
19192;DHT22;9728;48.194;16.346;2023-03-03T21:39:31;15.30;51.10
19192;DHT22;9728;48.194;16.346;2023-03-03T21:44:37;15.20;51.10
19192;DHT22;9728;48.194;16.346;2023-03-03T21:49:44;15.10;51.90
19192;DHT22;9728;48.194;16.346;2023-03-03T21:54:49;15.10;52.00
19192;DHT22;9728;48.194;16.346;2023-03-03T21:59:53;15.00;51.30
19192;DHT22;9728;48.194;16.346;2023-03-03T22:04:58;15.00;51.30
19192;DHT22;9728;48.194;16.346;2023-03-03T22:10:04;14.90;51.40
19192;DHT22;9728;48.194;16.346;2023-03-03T22:15:09;14.90;51.50
19192;DHT22;9728;48.194;16.346;2023-03-03T22:20:14;14.80;51.40
19192;DHT22;9728;48.194;16.346;2023-03-03T22:25:18;14.80;51.60
19192;DHT22;9728;48.194;16.346;2023-03-03T22:30:21;14.70;51.50
19192;DHT22;9728;48.194;16.346;2023-03-03T22:35:26;14.70;51.60
19192;DHT22;9728;48.194;16.346;2023-03-03T22:40:29;14.60;51.80
19192;DHT22;9728;48.194;16.346;2023-03-03T22:45:33;14.60;51.80
19192;DHT22;9728;48.194;16.346;2023-03-03T22:50:38;14.50;51.90
19192;DHT22;9728;48.194;16.346;2023-03-03T22:55:43;14.50;52.20
19192;DHT22;9728;48.194;16.346;2023-03-03T23:00:47;14.40;52.10
19192;DHT22;9728;48.194;16.346;2023-03-03T23:05:52;14.40;52.10
19192;DHT22;9728;48.194;16.346;2023-03-03T23:10:55;14.30;52.30
19192;DHT22;9728;48.194;16.346;2023-03-03T23:15:59;14.30;52.30
19192;DHT22;9728;48.194;16.346;2023-03-03T23:21:05;14.30;52.40
19192;DHT22;9728;48.194;16.346;2023-03-03T23:26:09;14.20;52.60
19192;DHT22;9728;48.194;16.346;2023-03-03T23:31:12;14.20;52.50
19192;DHT22;9728;48.194;16.346;2023-03-03T23:36:17;14.10;52.60
19192;DHT22;9728;48.194;16.346;2023-03-03T23:41:22;14.10;52.80
19192;DHT22;9728;48.194;16.346;2023-03-03T23:46:25;14.00;52.80
19192;DHT22;9728;48.194;16.346;2023-03-03T23:51:30;13.90;52.90
19192;DHT22;9728;48.194;16.346;2023-03-03T23:56:34;13.80;53.00
